sensor_id;sensor_type;location;lat;lon;timestamp;temperature;humidity
32728;DHT22;55292;51.844;19.246;2023-12-20T00:02:31;6.50;99.90
32728;DHT22;55292;51.844;19.246;2023-12-20T00:07:34;6.50;99.90
32728;DHT22;55292;51.844;19.246;2023-12-20T00:12:37;6.40;99.90
32728;DHT22;55292;51.844;19.246;2023-12-20T00:17:40;6.40;99.90
32728;DHT22;55292;51.844;19.246;2023-12-20T00:22:43;6.30;99.90
32728;DHT22;55292;51.844;19.246;2023-12-20T00:27:46;6.30;99.90
32728;DHT22;55292;51.844;19.246;2023-12-20T00:32:49;6.20;99.90
32728;DHT22;55292;51.844;19.246;2023-12-20T00:37:52;6.30;99.90
32728;DHT22;55292;51.844;19.246;2023-12-20T00:42:55;6.20;99.90
32728;DHT22;55292;51.844;19.246;2023-12-20T00:47:57;6.30;99.90
32728;DHT22;55292;51.844;19.246;2023-12-20T00:53:01;6.30;99.90
32728;DHT22;55292;51.844;19.246;2023-12-20T00:58:04;6.30;99.90
32728;DHT22;55292;51.844;19.246;2023-12-20T01:03:07;6.30;99.90
32728;DHT22;55292;51.844;19.246;2023-12-20T01:08:11;6.30;99.90
32728;DHT22;55292;51.844;19.246;2023-12-20T01:13:13;6.30;99.90
32728;DHT22;55292;51.844;19.246;2023-12-20T01:18:16;6.30;99.90
32728;DHT22;55292;51.844;19.246;2023-12-20T01:23:19;6.40;99.90
32728;DHT22;55292;51.844;19.246;2023-12-20T01:28:22;6.40;99.90
32728;DHT22;55292;51.844;19.246;2023-12-20T01:33:25;6.40;99.90
32728;DHT22;55292;51.844;19.246;2023-12-20T01:38:28;6.50;99.90
32728;DHT22;55292;51.844;19.246;2023-12-20T01:43:30;6.40;99.90
32728;DHT22;55292;51.844;19.246;2023-12-20T01:48:42;6.50;99.90
32728;DHT22;55292;51.844;19.246;2023-12-20T01:53:45;6.50;99.90
32728;DHT22;55292;51.844;19.246;2023-12-20T01:58:49;6.50;99.90
32728;DHT22;55292;51.844;19.246;2023-12-20T02:03:52;6.50;99.90
32728;DHT22;55292;51.844;19.246;2023-12-20T02:08:55;6.50;99.90
32728;DHT22;55292;51.844;19.246;2023-12-20T02:13:58;6.50;99.90
32728;DHT22;55292;51.844;19.246;2023-12-20T02:19:01;6.40;99.90
32728;DHT22;55292;51.844;19.246;2023-12-20T02:24:03;6.40;99.90
32728;DHT22;55292;51.844;19.246;2023-12-20T02:29:06;6.40;99.90
32728;DHT22;55292;51.844;19.246;2023-12-20T02:34:09;6.30;99.90
32728;DHT22;55292;51.844;19.246;2023-12-20T02:39:12;6.40;99.90
32728;DHT22;55292;51.844;19.246;2023-12-20T02:44:15;8.10;99.90
32728;DHT22;55292;51.844;19.246;2023-12-20T02:49:18;6.40;99.90
32728;DHT22;55292;51.844;19.246;2023-12-20T02:54:21;6.40;99.90
32728;DHT22;55292;51.844;19.246;2023-12-20T02:59:24;6.50;99.90
32728;DHT22;55292;51.844;19.246;2023-12-20T03:04:26;6.40;99.90
32728;DHT22;55292;51.844;19.246;2023-12-20T03:09:29;6.40;99.90
32728;DHT22;55292;51.844;19.246;2023-12-20T03:14:40;6.50;99.90
32728;DHT22;55292;51.844;19.246;2023-12-20T03:19:43;6.40;99.90
32728;DHT22;55292;51.844;19.246;2023-12-20T03:24:45;6.40;99.90
32728;DHT22;55292;51.844;19.246;2023-12-20T03:29:48;6.40;99.90
32728;DHT22;55292;51.844;19.246;2023-12-20T03:34:51;6.40;99.90
32728;DHT22;55292;51.844;19.246;2023-12-20T03:39:54;6.40;99.90
32728;DHT22;55292;51.844;19.246;2023-12-20T03:44:57;6.30;99.90
32728;DHT22;55292;51.844;19.246;2023-12-20T03:50:00;6.20;99.90
32728;DHT22;55292;51.844;19.246;2023-12-20T03:55:04;6.20;99.90
32728;DHT22;55292;51.844;19.246;2023-12-20T04:00:07;6.20;99.90
32728;DHT22;55292;51.844;19.246;2023-12-20T04:05:14;6.20;99.90
32728;DHT22;55292;51.844;19.246;2023-12-20T04:10:17;6.10;99.90
32728;DHT22;55292;51.844;19.246;2023-12-20T04:15:20;6.10;99.90
32728;DHT22;55292;51.844;19.246;2023-12-20T04:20:22;6.00;99.90
32728;DHT22;55292;51.844;19.246;2023-12-20T04:25:25;7.00;99.90
32728;DHT22;55292;51.844;19.246;2023-12-20T04:30:28;6.10;99.90
32728;DHT22;55292;51.844;19.246;2023-12-20T04:35:31;6.00;99.90
32728;DHT22;55292;51.844;19.246;2023-12-20T04:40:34;6.10;99.90
32728;DHT22;55292;51.844;19.246;2023-12-20T04:45:37;6.10;99.90
32728;DHT22;55292;51.844;19.246;2023-12-20T04:50:40;6.10;99.90
32728;DHT22;55292;51.844;19.246;2023-12-20T04:55:43;6.10;99.90
32728;DHT22;55292;51.844;19.246;2023-12-20T05:00:46;6.10;99.90
32728;DHT22;55292;51.844;19.246;2023-12-20T05:05:50;6.10;99.90
32728;DHT22;55292;51.844;19.246;2023-12-20T05:10:54;6.10;99.90
32728;DHT22;55292;51.844;19.246;2023-12-20T05:15:57;6.10;99.90
32728;DHT22;55292;51.844;19.246;2023-12-20T05:21:00;6.20;99.90
32728;DHT22;55292;51.844;19.246;2023-12-20T05:26:03;6.10;99.90
32728;DHT22;55292;51.844;19.246;2023-12-20T05:31:05;6.00;99.90
32728;DHT22;55292;51.844;19.246;2023-12-20T05:36:09;6.00;99.90
32728;DHT22;55292;51.844;19.246;2023-12-20T05:41:13;6.00;99.90
32728;DHT22;55292;51.844;19.246;2023-12-20T05:46:16;6.00;99.90
32728;DHT22;55292;51.844;19.246;2023-12-20T05:51:19;6.00;99.90
32728;DHT22;55292;51.844;19.246;2023-12-20T05:56:22;5.90;99.90
32728;DHT22;55292;51.844;19.246;2023-12-20T06:01:25;5.90;99.90
32728;DHT22;55292;51.844;19.246;2023-12-20T06:06:28;5.80;99.90
32728;DHT22;55292;51.844;19.246;2023-12-20T06:11:30;5.80;99.90
32728;DHT22;55292;51.844;19.246;2023-12-20T06:16:33;5.80;99.90
32728;DHT22;55292;51.844;19.246;2023-12-20T06:21:36;5.80;99.90
32728;DHT22;55292;51.844;19.246;2023-12-20T06:26:39;5.80;99.90
32728;DHT22;55292;51.844;19.246;2023-12-20T06:31:42;5.70;99.90
32728;DHT22;55292;51.844;19.246;2023-12-20T06:36:45;5.80;99.90
32728;DHT22;55292;51.844;19.246;2023-12-20T06:41:48;5.80;99.90
32728;DHT22;55292;51.844;19.246;2023-12-20T06:46:51;5.80;99.90
32728;DHT22;55292;51.844;19.246;2023-12-20T06:51:53;5.80;99.90
32728;DHT22;55292;51.844;19.246;2023-12-20T06:56:56;5.70;99.90
32728;DHT22;55292;51.844;19.246;2023-12-20T07:01:59;5.70;99.90
32728;DHT22;55292;51.844;19.246;2023-12-20T07:07:02;5.70;99.90
32728;DHT22;55292;51.844;19.246;2023-12-20T07:12:05;5.80;99.90
32728;DHT22;55292;51.844;19.246;2023-12-20T07:17:08;5.70;99.90
32728;DHT22;55292;51.844;19.246;2023-12-20T07:22:13;5.70;99.90
32728;DHT22;55292;51.844;19.246;2023-12-20T07:27:16;5.70;99.90
32728;DHT22;55292;51.844;19.246;2023-12-20T07:32:19;2.70;99.90
32728;DHT22;55292;51.844;19.246;2023-12-20T07:37:22;5.80;99.90
32728;DHT22;55292;51.844;19.246;2023-12-20T07:42:25;5.80;99.90
32728;DHT22;55292;51.844;19.246;2023-12-20T07:47:28;5.80;99.90
32728;DHT22;55292;51.844;19.246;2023-12-20T07:52:31;5.80;99.90
32728;DHT22;55292;51.844;19.246;2023-12-20T07:57:34;5.90;99.90
32728;DHT22;55292;51.844;19.246;2023-12-20T08:02:37;5.90;99.90
32728;DHT22;55292;51.844;19.246;2023-12-20T08:07:40;5.90;99.90
32728;DHT22;55292;51.844;19.246;2023-12-20T08:12:43;6.00;99.90
32728;DHT22;55292;51.844;19.246;2023-12-20T08:17:46;5.90;99.90
32728;DHT22;55292;51.844;19.246;2023-12-20T08:22:49;6.00;99.90
32728;DHT22;55292;51.844;19.246;2023-12-20T08:27:52;5.90;99.90
32728;DHT22;55292;51.844;19.246;2023-12-20T08:32:55;6.00;99.90
32728;DHT22;55292;51.844;19.246;2023-12-20T08:37:58;6.00;99.90
32728;DHT22;55292;51.844;19.246;2023-12-20T08:43:02;6.00;99.90
32728;DHT22;55292;51.844;19.246;2023-12-20T08:48:06;6.10;99.90
32728;DHT22;55292;51.844;19.246;2023-12-20T08:53:11;6.10;99.90
32728;DHT22;55292;51.844;19.246;2023-12-20T08:58:14;6.20;99.90
32728;DHT22;55292;51.844;19.246;2023-12-20T09:03:17;6.20;99.90
32728;DHT22;55292;51.844;19.246;2023-12-20T09:08:20;6.20;99.90
32728;DHT22;55292;51.844;19.246;2023-12-20T09:13:24;6.30;99.90
32728;DHT22;55292;51.844;19.246;2023-12-20T09:18:31;6.20;99.90
32728;DHT22;55292;51.844;19.246;2023-12-20T09:23:34;6.20;99.90
32728;DHT22;55292;51.844;19.246;2023-12-20T09:28:37;6.20;99.90
32728;DHT22;55292;51.844;19.246;2023-12-20T09:33:42;6.20;99.90
32728;DHT22;55292;51.844;19.246;2023-12-20T09:38:46;6.10;99.90
32728;DHT22;55292;51.844;19.246;2023-12-20T09:43:50;6.10;99.90
32728;DHT22;55292;51.844;19.246;2023-12-20T09:48:55;6.10;99.90
32728;DHT22;55292;51.844;19.246;2023-12-20T09:53:59;6.10;99.90
32728;DHT22;55292;51.844;19.246;2023-12-20T09:59:03;6.00;99.90
32728;DHT22;55292;51.844;19.246;2023-12-20T10:04:08;6.10;99.90
32728;DHT22;55292;51.844;19.246;2023-12-20T10:09:15;6.10;99.90
32728;DHT22;55292;51.844;19.246;2023-12-20T10:14:21;6.10;99.90
32728;DHT22;55292;51.844;19.246;2023-12-20T10:19:25;6.20;99.90
32728;DHT22;55292;51.844;19.246;2023-12-20T10:24:29;6.20;99.90
32728;DHT22;55292;51.844;19.246;2023-12-20T10:29:33;6.20;99.90
32728;DHT22;55292;51.844;19.246;2023-12-20T10:34:39;6.30;99.90
32728;DHT22;55292;51.844;19.246;2023-12-20T10:39:51;6.40;99.90
32728;DHT22;55292;51.844;19.246;2023-12-20T10:44:55;6.40;99.90
32728;DHT22;55292;51.844;19.246;2023-12-20T10:49:59;6.40;99.90
32728;DHT22;55292;51.844;19.246;2023-12-20T10:55:03;6.40;99.90
32728;DHT22;55292;51.844;19.246;2023-12-20T11:00:08;6.40;99.90
32728;DHT22;55292;51.844;19.246;2023-12-20T11:10:36;6.60;99.90
32728;DHT22;55292;51.844;19.246;2023-12-20T11:15:41;6.70;99.90
32728;DHT22;55292;51.844;19.246;2023-12-20T11:20:45;6.70;99.90
32728;DHT22;55292;51.844;19.246;2023-12-20T11:25:56;6.80;99.90
32728;DHT22;55292;51.844;19.246;2023-12-20T11:31:02;6.70;99.90
32728;DHT22;55292;51.844;19.246;2023-12-20T11:36:14;6.50;99.90
32728;DHT22;55292;51.844;19.246;2023-12-20T11:41:17;6.50;99.90
32728;DHT22;55292;51.844;19.246;2023-12-20T11:46:20;6.40;99.90
32728;DHT22;55292;51.844;19.246;2023-12-20T11:51:23;6.60;99.90
32728;DHT22;55292;51.844;19.246;2023-12-20T11:56:30;6.50;99.90
32728;DHT22;55292;51.844;19.246;2023-12-20T12:01:33;6.50;99.90
32728;DHT22;55292;51.844;19.246;2023-12-20T12:06:38;6.40;99.90
32728;DHT22;55292;51.844;19.246;2023-12-20T12:11:41;6.30;99.90
32728;DHT22;55292;51.844;19.246;2023-12-20T12:16:44;6.20;99.90
32728;DHT22;55292;51.844;19.246;2023-12-20T12:21:48;6.10;99.90
32728;DHT22;55292;51.844;19.246;2023-12-20T12:26:51;6.00;99.90
32728;DHT22;55292;51.844;19.246;2023-12-20T12:31:54;6.00;99.90
32728;DHT22;55292;51.844;19.246;2023-12-20T12:36:59;5.90;99.90
32728;DHT22;55292;51.844;19.246;2023-12-20T12:42:01;6.00;99.90
32728;DHT22;55292;51.844;19.246;2023-12-20T12:47:04;5.90;99.90
32728;DHT22;55292;51.844;19.246;2023-12-20T12:52:08;5.70;99.90
32728;DHT22;55292;51.844;19.246;2023-12-20T12:57:11;5.70;99.90
32728;DHT22;55292;51.844;19.246;2023-12-20T13:02:15;5.60;99.90
32728;DHT22;55292;51.844;19.246;2023-12-20T13:07:18;5.60;99.90
32728;DHT22;55292;51.844;19.246;2023-12-20T13:12:21;5.80;99.90
32728;DHT22;55292;51.844;19.246;2023-12-20T13:17:24;5.80;99.90
32728;DHT22;55292;51.844;19.246;2023-12-20T13:22:27;5.70;99.90
32728;DHT22;55292;51.844;19.246;2023-12-20T13:27:31;5.70;99.90
32728;DHT22;55292;51.844;19.246;2023-12-20T13:32:34;5.70;99.90
32728;DHT22;55292;51.844;19.246;2023-12-20T13:37:38;5.70;99.90
32728;DHT22;55292;51.844;19.246;2023-12-20T13:42:41;5.70;99.90
32728;DHT22;55292;51.844;19.246;2023-12-20T13:47:44;5.60;99.90
32728;DHT22;55292;51.844;19.246;2023-12-20T13:52:48;5.60;99.90
32728;DHT22;55292;51.844;19.246;2023-12-20T13:57:51;5.70;99.90
32728;DHT22;55292;51.844;19.246;2023-12-20T14:02:57;5.70;99.90
32728;DHT22;55292;51.844;19.246;2023-12-20T14:08:01;5.60;99.90
32728;DHT22;55292;51.844;19.246;2023-12-20T14:13:05;5.70;99.90
32728;DHT22;55292;51.844;19.246;2023-12-20T14:18:08;5.60;99.90
32728;DHT22;55292;51.844;19.246;2023-12-20T14:23:11;5.60;99.90
32728;DHT22;55292;51.844;19.246;2023-12-20T14:28:14;5.50;99.90
32728;DHT22;55292;51.844;19.246;2023-12-20T14:33:17;5.50;99.90
32728;DHT22;55292;51.844;19.246;2023-12-20T14:38:23;5.50;99.90
32728;DHT22;55292;51.844;19.246;2023-12-20T14:43:26;5.50;99.90
32728;DHT22;55292;51.844;19.246;2023-12-20T14:48:29;5.50;99.90
32728;DHT22;55292;51.844;19.246;2023-12-20T14:53:33;5.40;99.90
32728;DHT22;55292;51.844;19.246;2023-12-20T14:58:39;5.40;99.90
32728;DHT22;55292;51.844;19.246;2023-12-20T15:03:42;5.40;99.90
32728;DHT22;55292;51.844;19.246;2023-12-20T15:08:45;5.40;99.90
32728;DHT22;55292;51.844;19.246;2023-12-20T15:13:48;5.40;99.90
32728;DHT22;55292;51.844;19.246;2023-12-20T15:18:58;5.30;99.90
32728;DHT22;55292;51.844;19.246;2023-12-20T15:24:01;5.20;99.90
32728;DHT22;55292;51.844;19.246;2023-12-20T15:29:20;5.20;99.90
32728;DHT22;55292;51.844;19.246;2023-12-20T15:34:23;5.00;99.90
32728;DHT22;55292;51.844;19.246;2023-12-20T15:39:26;5.00;99.90
32728;DHT22;55292;51.844;19.246;2023-12-20T15:44:28;4.90;99.90
32728;DHT22;55292;51.844;19.246;2023-12-20T15:49:31;4.90;99.90
32728;DHT22;55292;51.844;19.246;2023-12-20T15:54:34;5.00;99.90
32728;DHT22;55292;51.844;19.246;2023-12-20T15:59:40;5.10;99.90
32728;DHT22;55292;51.844;19.246;2023-12-20T16:04:43;4.90;99.90
32728;DHT22;55292;51.844;19.246;2023-12-20T16:09:46;4.80;99.90
32728;DHT22;55292;51.844;19.246;2023-12-20T16:14:49;4.70;99.90
32728;DHT22;55292;51.844;19.246;2023-12-20T16:19:51;4.90;99.90
32728;DHT22;55292;51.844;19.246;2023-12-20T16:24:54;5.00;99.90
32728;DHT22;55292;51.844;19.246;2023-12-20T16:29:57;4.90;99.90
32728;DHT22;55292;51.844;19.246;2023-12-20T16:35:01;4.90;99.90
32728;DHT22;55292;51.844;19.246;2023-12-20T16:40:05;5.00;99.90
32728;DHT22;55292;51.844;19.246;2023-12-20T16:45:09;4.90;99.90
32728;DHT22;55292;51.844;19.246;2023-12-20T16:50:12;4.90;99.90
32728;DHT22;55292;51.844;19.246;2023-12-20T16:55:15;4.90;99.90
32728;DHT22;55292;51.844;19.246;2023-12-20T17:00:18;5.00;99.90
32728;DHT22;55292;51.844;19.246;2023-12-20T17:05:21;5.00;99.90
32728;DHT22;55292;51.844;19.246;2023-12-20T17:10:24;5.10;99.90
32728;DHT22;55292;51.844;19.246;2023-12-20T17:15:27;5.10;99.90
32728;DHT22;55292;51.844;19.246;2023-12-20T17:20:30;5.20;99.90
32728;DHT22;55292;51.844;19.246;2023-12-20T17:25:33;5.10;99.90
32728;DHT22;55292;51.844;19.246;2023-12-20T17:30:42;5.00;99.90
32728;DHT22;55292;51.844;19.246;2023-12-20T17:35:49;2.50;99.90
32728;DHT22;55292;51.844;19.246;2023-12-20T17:40:55;5.00;99.90
32728;DHT22;55292;51.844;19.246;2023-12-20T17:45:57;5.10;99.90
32728;DHT22;55292;51.844;19.246;2023-12-20T17:51:01;5.20;99.90
32728;DHT22;55292;51.844;19.246;2023-12-20T17:56:04;5.20;99.90
32728;DHT22;55292;51.844;19.246;2023-12-20T18:01:07;5.20;99.90
32728;DHT22;55292;51.844;19.246;2023-12-20T18:06:10;5.20;99.90
32728;DHT22;55292;51.844;19.246;2023-12-20T18:11:13;5.20;99.90
32728;DHT22;55292;51.844;19.246;2023-12-20T18:16:16;5.20;99.90
32728;DHT22;55292;51.844;19.246;2023-12-20T18:21:19;5.20;99.90
32728;DHT22;55292;51.844;19.246;2023-12-20T18:26:25;5.30;99.90
32728;DHT22;55292;51.844;19.246;2023-12-20T18:31:28;5.30;99.90
32728;DHT22;55292;51.844;19.246;2023-12-20T18:36:31;5.40;99.90
32728;DHT22;55292;51.844;19.246;2023-12-20T18:41:34;5.40;99.90
32728;DHT22;55292;51.844;19.246;2023-12-20T18:46:37;5.20;99.90
32728;DHT22;55292;51.844;19.246;2023-12-20T18:51:40;5.20;99.90
32728;DHT22;55292;51.844;19.246;2023-12-20T18:56:44;5.20;99.90
32728;DHT22;55292;51.844;19.246;2023-12-20T19:01:47;5.00;99.90
32728;DHT22;55292;51.844;19.246;2023-12-20T19:06:51;4.80;99.90
32728;DHT22;55292;51.844;19.246;2023-12-20T19:11:59;4.70;99.90
32728;DHT22;55292;51.844;19.246;2023-12-20T19:17:02;4.70;99.90
32728;DHT22;55292;51.844;19.246;2023-12-20T19:22:06;4.70;99.90
32728;DHT22;55292;51.844;19.246;2023-12-20T19:27:10;4.80;99.90
32728;DHT22;55292;51.844;19.246;2023-12-20T19:32:14;4.90;99.90
32728;DHT22;55292;51.844;19.246;2023-12-20T19:37:19;4.90;99.90
32728;DHT22;55292;51.844;19.246;2023-12-20T19:42:23;4.80;99.90
32728;DHT22;55292;51.844;19.246;2023-12-20T19:47:30;4.40;99.90
32728;DHT22;55292;51.844;19.246;2023-12-20T19:52:33;3.80;99.90
32728;DHT22;55292;51.844;19.246;2023-12-20T19:57:36;3.80;99.90
32728;DHT22;55292;51.844;19.246;2023-12-20T20:02:39;4.00;99.90
32728;DHT22;55292;51.844;19.246;2023-12-20T20:07:44;4.10;99.90
32728;DHT22;55292;51.844;19.246;2023-12-20T20:12:47;4.30;99.90
32728;DHT22;55292;51.844;19.246;2023-12-20T20:17:50;4.40;99.90
32728;DHT22;55292;51.844;19.246;2023-12-20T20:22:53;4.40;99.90
32728;DHT22;55292;51.844;19.246;2023-12-20T20:27:57;4.50;99.90
32728;DHT22;55292;51.844;19.246;2023-12-20T20:33:00;4.40;99.90
32728;DHT22;55292;51.844;19.246;2023-12-20T20:38:05;4.40;99.90
32728;DHT22;55292;51.844;19.246;2023-12-20T20:43:08;4.40;99.90
32728;DHT22;55292;51.844;19.246;2023-12-20T20:48:11;4.50;99.90
32728;DHT22;55292;51.844;19.246;2023-12-20T20:53:31;4.50;99.90
32728;DHT22;55292;51.844;19.246;2023-12-20T20:58:34;4.50;99.90
32728;DHT22;55292;51.844;19.246;2023-12-20T21:03:38;4.40;99.90
32728;DHT22;55292;51.844;19.246;2023-12-20T21:08:41;4.50;99.90
32728;DHT22;55292;51.844;19.246;2023-12-20T21:13:47;4.50;99.90
32728;DHT22;55292;51.844;19.246;2023-12-20T21:18:50;4.50;99.90
32728;DHT22;55292;51.844;19.246;2023-12-20T21:23:53;4.50;99.90
32728;DHT22;55292;51.844;19.246;2023-12-20T21:28:56;4.50;99.90
32728;DHT22;55292;51.844;19.246;2023-12-20T21:33:59;4.50;99.90
32728;DHT22;55292;51.844;19.246;2023-12-20T21:39:03;4.50;99.90
32728;DHT22;55292;51.844;19.246;2023-12-20T21:44:18;4.50;99.90
32728;DHT22;55292;51.844;19.246;2023-12-20T21:49:21;4.50;99.90
32728;DHT22;55292;51.844;19.246;2023-12-20T21:54:24;4.50;99.90
32728;DHT22;55292;51.844;19.246;2023-12-20T21:59:41;4.40;99.90
32728;DHT22;55292;51.844;19.246;2023-12-20T22:04:45;4.30;99.90
32728;DHT22;55292;51.844;19.246;2023-12-20T22:09:48;4.30;99.90
32728;DHT22;55292;51.844;19.246;2023-12-20T22:14:52;4.30;99.90
32728;DHT22;55292;51.844;19.246;2023-12-20T22:19:55;4.40;99.90
32728;DHT22;55292;51.844;19.246;2023-12-20T22:24:58;4.40;99.90
32728;DHT22;55292;51.844;19.246;2023-12-20T22:30:01;4.40;99.90
32728;DHT22;55292;51.844;19.246;2023-12-20T22:35:05;4.40;99.90
32728;DHT22;55292;51.844;19.246;2023-12-20T22:40:10;4.50;99.90
32728;DHT22;55292;51.844;19.246;2023-12-20T22:45:13;4.50;99.90
32728;DHT22;55292;51.844;19.246;2023-12-20T22:50:16;4.40;99.90
32728;DHT22;55292;51.844;19.246;2023-12-20T22:55:19;4.40;99.90
32728;DHT22;55292;51.844;19.246;2023-12-20T23:00:22;4.40;99.90
32728;DHT22;55292;51.844;19.246;2023-12-20T23:05:28;4.20;99.90
32728;DHT22;55292;51.844;19.246;2023-12-20T23:10:31;3.90;99.90
32728;DHT22;55292;51.844;19.246;2023-12-20T23:15:34;3.80;99.90
32728;DHT22;55292;51.844;19.246;2023-12-20T23:20:37;3.70;99.90
32728;DHT22;55292;51.844;19.246;2023-12-20T23:25:43;3.80;99.90
32728;DHT22;55292;51.844;19.246;2023-12-20T23:30:47;3.80;99.90
32728;DHT22;55292;51.844;19.246;2023-12-20T23:35:50;3.90;99.90
32728;DHT22;55292;51.844;19.246;2023-12-20T23:40:53;3.90;99.90
32728;DHT22;55292;51.844;19.246;2023-12-20T23:45:58;4.10;99.90
32728;DHT22;55292;51.844;19.246;2023-12-20T23:51:01;4.00;99.90
32728;DHT22;55292;51.844;19.246;2023-12-20T23:56:04;3.90;99.90
